Time;durP1;ratioP1;P1;durP2;ratioP2;P2;SDS_P1;SDS_P2;PMS_P1;PMS_P2;Temp;Humidity;BMP_temperature;BMP_pressure;BME280_temperature;BME280_humidity;BME280_pressure;Samples;Min_cycle;Max_cycle;Signal;HPM_P1;HPM_P2
2022/05/12 00:00:13;;;;;;;4.50;4.20;;;;;;;16.77;79.43;99839.06;5022097;28;20281;-68
2022/05/12 00:02:40;;;;;;;3.87;3.67;;;;;;;16.78;79.69;99841.59;5017732;28;20314;-68
2022/05/12 00:05:09;;;;;;;3.77;3.57;;;;;;;16.71;79.97;99819.50;5012781;28;20680;-68
2022/05/12 00:07:36;;;;;;;4.50;4.23;;;;;;;16.78;79.74;99830.41;5014794;28;20205;-68
2022/05/12 00:10:06;;;;;;;3.90;3.70;;;;;;;16.74;80.10;99828.88;5014027;28;20209;-67
2022/05/12 00:12:32;;;;;;;5.17;3.53;;;;;;;16.72;79.75;99826.38;5014062;28;20202;-68
2022/05/12 00:14:59;;;;;;;2.87;2.77;;;;;;;16.70;79.59;99837.72;5023140;28;20696;-68
2022/05/12 00:17:26;;;;;;;3.93;3.73;;;;;;;16.69;79.25;99836.88;5022675;28;20562;-68
2022/05/12 00:19:53;;;;;;;3.47;3.27;;;;;;;16.69;78.80;99844.63;5027153;28;20217;-68
2022/05/12 00:22:21;;;;;;;3.23;3.13;;;;;;;16.69;78.88;99836.88;5021365;28;20206;-69
2022/05/12 00:24:48;;;;;;;3.30;3.20;;;;;;;16.61;78.81;99827.78;5029878;28;20206;-68
2022/05/12 00:27:15;;;;;;;3.57;3.37;;;;;;;16.62;78.67;99840.66;5028344;28;20569;-68
2022/05/12 00:29:42;;;;;;;3.63;3.43;;;;;;;16.59;78.40;99843.41;5016820;28;20202;-68
2022/05/12 00:32:09;;;;;;;3.13;3.03;;;;;;;16.55;77.90;99844.44;5019092;28;20694;-68
2022/05/12 00:34:36;;;;;;;2.90;2.80;;;;;;;16.50;77.74;99850.72;5019691;28;20583;-68
2022/05/12 00:37:03;;;;;;;6.33;3.30;;;;;;;16.40;76.95;99855.50;5011787;28;20598;-68
2022/05/12 00:39:31;;;;;;;3.47;3.27;;;;;;;16.30;76.80;99854.25;5017408;28;20219;-68
2022/05/12 00:41:58;;;;;;;3.30;3.20;;;;;;;16.23;76.52;99853.69;5022852;28;20201;-69
2022/05/12 00:44:25;;;;;;;3.67;3.57;;;;;;;16.17;76.67;99853.13;5021297;28;20844;-68
2022/05/12 00:46:53;;;;;;;3.40;3.30;;;;;;;16.14;76.93;99853.25;5017289;28;20206;-69
2022/05/12 00:49:25;;;;;;;2.80;2.70;;;;;;;16.11;77.32;99848.22;5013142;28;20195;-68
2022/05/12 00:51:58;;;;;;;3.93;3.73;;;;;;;16.10;77.54;99846.53;5016387;28;20671;-68
2022/05/12 00:54:30;;;;;;;2.90;2.80;;;;;;;16.08;77.93;99850.97;5011201;28;20206;-67
2022/05/12 00:57:00;;;;;;;3.40;3.23;;;;;;;16.06;78.29;99847.59;5018586;28;20664;-68
2022/05/12 00:59:32;;;;;;;3.53;3.33;;;;;;;16.00;78.26;99837.53;5018762;28;20222;-67
2022/05/12 01:02:01;;;;;;;3.97;3.77;;;;;;;16.02;77.80;99843.47;5018256;28;20209;-69
2022/05/12 01:04:31;;;;;;;3.87;3.70;;;;;;;15.82;78.59;99825.44;5011799;28;20202;-68
2022/05/12 01:06:59;;;;;;;3.53;3.40;;;;;;;15.85;79.01;99835.63;5022834;28;20193;-68
2022/05/12 01:09:27;;;;;;;3.43;3.23;;;;;;;15.77;79.12;99843.72;5017133;28;20688;-68
2022/05/12 01:11:56;;;;;;;3.27;3.17;;;;;;;15.84;79.04;99854.63;5017061;28;20206;-68
2022/05/12 01:14:24;;;;;;;3.50;3.30;;;;;;;15.82;79.19;99853.88;5022263;28;20276;-68
2022/05/12 01:16:54;;;;;;;3.77;3.57;;;;;;;15.81;79.25;99854.78;5017830;28;20209;-68
2022/05/12 01:19:23;;;;;;;2.97;2.87;;;;;;;15.80;79.83;99853.91;5018637;28;20222;-68
2022/05/12 01:21:53;;;;;;;5.97;3.33;;;;;;;15.74;80.45;99849.88;5024176;28;20193;-68
2022/05/12 01:24:24;;;;;;;3.07;2.97;;;;;;;15.77;80.74;99857.50;5012524;28;20198;-68
2022/05/12 01:26:51;;;;;;;3.67;3.47;;;;;;;15.75;80.93;99861.91;5018985;28;20197;-68
2022/05/12 01:29:18;;;;;;;3.37;3.17;;;;;;;15.68;80.93;99860.47;5012381;28;20199;-68
2022/05/12 01:31:45;;;;;;;2.90;2.80;;;;;;;15.63;80.90;99861.59;5015935;28;20202;-68
2022/05/12 01:34:12;;;;;;;3.17;3.07;;;;;;;15.62;80.73;99865.91;5016778;28;20212;-68
2022/05/12 01:36:40;;;;;;;3.67;3.37;;;;;;;15.63;80.94;99866.75;5013489;28;20217;-68
2022/05/12 01:39:09;;;;;;;3.07;2.87;;;;;;;15.60;80.66;99862.56;5016160;28;20209;-68
2022/05/12 01:41:38;;;;;;;3.00;2.90;;;;;;;15.63;80.09;99867.63;5015579;28;20210;-68
2022/05/12 01:44:05;;;;;;;3.03;2.80;;;;;;;15.57;80.13;99864.44;5015195;28;20193;-68
2022/05/12 01:46:32;;;;;;;3.30;3.10;;;;;;;15.51;80.89;99862.94;5015566;28;20206;-68
2022/05/12 01:48:59;;;;;;;3.30;3.10;;;;;;;15.41;81.95;99856.44;5017858;28;20210;-68
2022/05/12 01:51:28;;;;;;;3.37;2.83;;;;;;;15.31;82.90;99860.34;5013329;28;20194;-68
2022/05/12 01:53:55;;;;;;;3.43;3.33;;;;;;;15.22;82.96;99860.72;5013046;28;20233;-68
2022/05/12 01:56:22;;;;;;;3.00;2.80;;;;;;;15.19;83.00;99860.84;5017765;28;21017;-68
2022/05/12 01:58:50;;;;;;;3.67;3.43;;;;;;;15.06;82.90;99850.19;5021796;28;20221;-68
2022/05/12 02:01:17;;;;;;;3.57;2.97;;;;;;;15.08;83.01;99863.91;5026837;28;20222;-68
2022/05/12 02:03:43;;;;;;;3.07;2.97;;;;;;;15.11;83.13;99862.94;5027323;28;20212;-68
2022/05/12 02:06:10;;;;;;;3.27;3.13;;;;;;;15.09;83.07;99849.22;5025082;28;20208;-68
2022/05/12 02:08:37;;;;;;;3.27;3.10;;;;;;;15.16;82.80;99867.00;5022913;28;20198;-68
2022/05/12 02:11:04;;;;;;;5.30;3.13;;;;;;;15.16;82.33;99866.13;5017157;28;20194;-68
2022/05/12 02:13:31;;;;;;;3.70;3.40;;;;;;;15.15;82.19;99874.81;5019454;28;20210;-68
2022/05/12 02:16:00;;;;;;;3.37;3.20;;;;;;;15.07;82.35;99866.53;5025984;28;20201;-68
2022/05/12 02:18:29;;;;;;;3.43;2.77;;;;;;;15.15;81.91;99874.81;5023038;28;20198;-68
2022/05/12 02:20:57;;;;;;;3.20;3.00;;;;;;;15.12;82.39;99886.09;5028898;28;20221;-68
2022/05/12 02:23:24;;;;;;;3.77;3.57;;;;;;;15.09;81.73;99890.53;5026259;28;20212;-69
2022/05/12 02:25:51;;;;;;;3.80;3.50;;;;;;;15.05;81.89;99896.75;5027836;28;20201;-68
2022/05/12 02:28:19;;;;;;;3.03;2.83;;;;;;;15.00;82.10;99891.75;5026101;28;20669;-68
2022/05/12 02:30:46;;;;;;;3.53;3.33;;;;;;;14.94;81.66;99896.31;5022113;28;20208;-68
2022/05/12 02:33:14;;;;;;;5.90;3.47;;;;;;;14.93;82.20;99897.22;5010742;28;20205;-67
2022/05/12 02:35:41;;;;;;;3.33;3.13;;;;;;;14.86;82.33;99888.91;5009461;28;20696;-68
2022/05/12 02:38:09;;;;;;;3.10;2.97;;;;;;;14.91;83.14;99896.44;5015863;28;20217;-68
2022/05/12 02:40:36;;;;;;;4.17;3.77;;;;;;;14.90;83.53;99899.91;5024707;28;20221;-68
2022/05/12 02:43:22;;;;;;;5.47;4.07;;;;;;;14.89;84.09;99893.09;5008884;28;20301;-68
2022/05/12 02:45:50;;;;;;;3.47;3.30;;;;;;;14.88;84.08;99902.59;5019608;28;20581;-68
2022/05/12 02:48:19;;;;;;;3.93;3.63;;;;;;;14.79;84.07;99902.09;5021996;28;20197;-68
2022/05/12 02:50:46;;;;;;;3.97;3.67;;;;;;;14.84;84.19;99910.50;5024675;28;20198;-68
2022/05/12 02:53:13;;;;;;;3.53;3.33;;;;;;;14.82;84.20;99907.16;5022554;28;20589;-68
2022/05/12 02:55:40;;;;;;;3.73;3.53;;;;;;;14.73;84.50;99904.94;5026413;28;20236;-68
2022/05/12 02:58:07;;;;;;;3.87;3.67;;;;;;;14.76;84.75;99918.56;5020414;28;20205;-68
2022/05/12 03:00:34;;;;;;;7.07;4.27;;;;;;;14.76;84.91;99923.72;5024733;28;20228;-68
2022/05/12 03:03:01;;;;;;;4.40;4.10;;;;;;;14.76;85.57;99925.47;5021316;28;20201;-68
2022/05/12 03:05:30;;;;;;;4.50;4.10;;;;;;;14.70;85.70;99929.94;5022772;28;20205;-68
2022/05/12 03:07:57;;;;;;;4.07;3.80;;;;;;;14.64;85.83;99922.44;5024929;28;20572;-68
2022/05/12 03:10:24;;;;;;;4.10;3.80;;;;;;;14.69;85.87;99933.44;5020810;28;20277;-68
2022/05/12 03:12:51;;;;;;;3.73;3.53;;;;;;;14.69;86.03;99928.28;5015453;28;20224;-68
2022/05/12 03:15:18;;;;;;;4.73;4.53;;;;;;;14.68;85.96;99931.75;5021068;28;20209;-68
2022/05/12 03:17:46;;;;;;;4.90;4.60;;;;;;;14.73;85.58;99929.81;5031156;28;20677;-68
2022/05/12 03:20:15;;;;;;;4.40;4.20;;;;;;;14.73;85.67;99925.56;5030826;28;20240;-68
2022/05/12 03:22:44;;;;;;;4.30;3.77;;;;;;;14.70;86.22;99937.69;5031722;28;20193;-68
2022/05/12 03:25:12;;;;;;;6.97;4.13;;;;;;;14.69;86.39;99936.03;5029929;28;20209;-68
2022/05/12 03:27:40;;;;;;;4.43;4.10;;;;;;;14.66;86.88;99933.56;5030946;28;20206;-68
2022/05/12 03:30:10;;;;;;;5.20;4.50;;;;;;;14.68;87.22;99931.75;5021811;28;20208;-67
2022/05/12 03:32:37;;;;;;;4.40;4.20;;;;;;;14.70;87.22;99935.09;5014583;28;20209;-68
2022/05/12 03:35:04;;;;;;;5.17;4.87;;;;;;;14.58;87.54;99920.09;5017854;28;20194;-68
2022/05/12 03:37:31;;;;;;;9.60;4.87;;;;;;;14.72;87.90;99940.22;5012339;28;20206;-68
2022/05/12 03:40:00;;;;;;;4.43;4.13;;;;;;;14.80;88.05;99937.34;5022990;28;20232;-69
2022/05/12 03:42:27;;;;;;;4.43;3.70;;;;;;;14.88;87.82;99943.03;5028651;28;20209;-69
2022/05/12 03:44:54;;;;;;;5.20;4.80;;;;;;;14.96;87.64;99941.81;5031195;28;20197;-68
2022/05/12 03:47:22;;;;;;;4.10;3.80;;;;;;;15.06;87.64;99943.16;5014698;28;20617;-68
2022/05/12 03:49:52;;;;;;;4.63;4.13;;;;;;;15.16;86.97;99943.63;5018322;28;20597;-69
2022/05/12 03:52:20;;;;;;;8.03;4.07;;;;;;;15.17;85.76;99940.16;5026997;28;20193;-67
2022/05/12 03:54:48;;;;;;;3.70;3.40;;;;;;;15.21;85.51;99947.72;5021546;28;20226;-69
2022/05/12 03:57:17;;;;;;;4.83;4.33;;;;;;;15.24;86.41;99952.75;5018939;28;20221;-68
2022/05/12 03:59:45;;;;;;;4.13;3.90;;;;;;;15.38;85.30;99965.09;5021536;28;20667;-68
2022/05/12 04:02:13;;;;;;;5.40;4.23;;;;;;;15.39;85.61;99940.94;5015542;28;20210;-68
2022/05/12 04:04:42;;;;;;;4.90;4.50;;;;;;;15.63;84.83;99960.66;5017162;28;20194;-68
2022/05/12 04:07:09;;;;;;;4.87;4.03;;;;;;;15.73;83.95;99950.78;5014041;28;20190;-68
2022/05/12 04:09:36;;;;;;;9.50;4.47;;;;;;;15.95;83.25;99961.88;5016534;28;20198;-68
2022/05/12 04:12:04;;;;;;;4.43;3.70;;;;;;;16.14;82.97;99967.91;5026167;28;20200;-68
2022/05/12 04:14:32;;;;;;;3.70;3.53;;;;;;;16.27;82.50;99960.47;5016239;28;20203;-68
2022/05/12 04:17:00;;;;;;;4.23;3.40;;;;;;;16.49;81.20;99958.59;5026402;28;20208;-68
2022/05/12 04:19:28;;;;;;;3.43;3.23;;;;;;;16.83;79.69;99977.78;5025934;28;20198;-62
2022/05/12 04:21:54;;;;;;;3.83;3.57;;;;;;;17.06;78.69;99983.56;5025199;28;20218;-62
2022/05/12 04:24:22;;;;;;;4.77;3.27;;;;;;;17.23;78.30;99969.78;5021383;28;20210;-62
2022/05/12 04:26:49;;;;;;;4.27;3.97;;;;;;;17.52;78.18;99979.59;5011970;28;20210;-62
2022/05/12 04:29:17;;;;;;;4.20;4.00;;;;;;;17.75;77.42;99987.09;5011606;28;20198;-62
2022/05/12 04:31:45;;;;;;;4.10;3.87;;;;;;;17.96;75.15;99979.16;5011885;28;20221;-62
2022/05/12 04:36:56;;;;;;;3.77;3.57;;;;;;;18.46;73.80;99982.53;5028056;28;20275;-62
2022/05/12 04:39:23;;;;;;;4.10;3.90;;;;;;;18.58;73.93;99963.72;5021987;28;20194;-62
2022/05/12 04:41:49;;;;;;;3.33;2.87;;;;;;;18.93;72.98;99989.56;5014431;28;20222;-62
2022/05/12 04:44:16;;;;;;;4.13;3.30;;;;;;;19.17;71.89;99996.00;5026867;28;20201;-62
2022/05/12 04:46:45;;;;;;;3.27;3.07;;;;;;;19.36;71.33;99984.47;5025969;28;20202;-62
2022/05/12 04:49:14;;;;;;;2.90;2.80;;;;;;;19.63;69.96;99992.50;5025387;28;20216;-62
2022/05/12 04:51:42;;;;;;;4.27;3.20;;;;;;;19.79;67.66;99988.06;5017539;28;20194;-62
2022/05/12 04:54:09;;;;;;;2.70;2.60;;;;;;;19.93;67.63;99990.69;5014879;28;20582;-62
2022/05/12 04:56:36;;;;;;;2.90;2.80;;;;;;;20.10;64.79;100001.88;5021106;28;20677;-62
2022/05/12 04:59:04;;;;;;;2.70;2.60;;;;;;;20.20;64.28;99992.56;5020985;28;20200;-62
2022/05/12 05:01:31;;;;;;;3.13;2.93;;;;;;;20.17;64.79;99998.81;5013890;28;20225;-63
2022/05/12 05:04:00;;;;;;;2.63;2.53;;;;;;;20.32;66.28;99997.09;5024631;28;20300;-62
2022/05/12 05:06:27;;;;;;;3.00;2.90;;;;;;;20.62;67.20;100000.41;5015404;28;20602;-62
2022/05/12 05:08:54;;;;;;;3.10;2.90;;;;;;;20.92;66.30;99998.50;5025750;28;20619;-63
2022/05/12 05:11:21;;;;;;;2.90;2.80;;;;;;;21.18;64.45;99993.44;5022607;28;20204;-62
2022/05/12 05:13:48;;;;;;;3.60;3.30;;;;;;;21.49;61.43;100000.94;5005045;28;20206;-62
2022/05/12 05:16:15;;;;;;;4.00;3.13;;;;;;;21.70;59.74;99996.94;5019615;28;20635;-64
2022/05/12 05:18:42;;;;;;;2.90;2.80;;;;;;;21.96;59.28;99998.66;5009673;28;20215;-65
2022/05/12 05:21:11;;;;;;;2.83;2.73;;;;;;;22.21;60.07;99994.38;5013969;28;20238;-64
2022/05/12 05:23:38;;;;;;;3.43;3.33;;;;;;;22.42;58.25;99996.34;5013415;28;20215;-65
2022/05/12 05:26:07;;;;;;;4.80;3.07;;;;;;;22.59;58.60;100000.38;5014397;28;20237;-64
2022/05/12 05:28:34;;;;;;;15.30;4.20;;;;;;;22.80;59.14;100001.53;5014422;28;20567;-65
2022/05/12 05:31:01;;;;;;;2.90;2.80;;;;;;;22.86;57.72;100001.09;5018660;28;20203;-64
2022/05/12 05:33:28;;;;;;;3.40;3.30;;;;;;;23.04;57.15;100003.34;5018504;28;20686;-63
2022/05/12 05:35:57;;;;;;;4.03;2.80;;;;;;;23.27;56.94;99999.88;5014888;28;20566;-62
2022/05/12 05:38:25;;;;;;;2.77;2.40;;;;;;;23.60;57.36;100002.69;5013590;28;20292;-64
2022/05/12 05:40:52;;;;;;;2.57;2.47;;;;;;;23.74;56.13;100005.13;5024397;28;20707;-64
2022/05/12 05:43:19;;;;;;;2.40;2.30;;;;;;;23.91;55.17;99999.44;5014565;28;20210;-67
2022/05/12 05:45:46;;;;;;;2.97;2.87;;;;;;;23.84;52.10;100002.66;5009851;28;20276;-67
2022/05/12 05:48:13;;;;;;;2.97;2.77;;;;;;;23.82;52.90;100000.13;5015567;28;20726;-66
2022/05/12 05:53:29;;;;;;;2.30;2.20;;;;;;;24.22;53.44;100005.84;5018733;28;20227;-64
2022/05/12 05:55:58;;;;;;;2.50;2.40;;;;;;;24.28;51.69;99999.28;5015192;28;21360;-63
2022/05/12 05:58:26;;;;;;;2.50;2.40;;;;;;;24.35;52.29;100006.56;5015758;28;20241;-63
2022/05/12 06:00:54;;;;;;;2.43;2.23;;;;;;;24.68;51.91;100003.09;5014022;28;20226;-63
2022/05/12 06:03:21;;;;;;;2.47;2.37;;;;;;;24.77;49.91;100002.38;5009980;28;20304;-63
2022/05/12 06:05:48;;;;;;;3.17;2.97;;;;;;;24.83;49.74;100007.16;5008795;28;20256;-64
2022/05/12 06:08:18;;;;;;;2.17;2.07;;;;;;;24.90;49.20;100003.09;5021028;28;20570;-64
2022/05/12 06:10:46;;;;;;;2.77;2.57;;;;;;;25.19;49.28;100013.03;5022621;28;20296;-64
2022/05/12 06:13:14;;;;;;;2.63;2.33;;;;;;;25.44;49.56;100017.94;5015903;28;20205;-66
2022/05/12 06:15:41;;;;;;;2.40;2.30;;;;;;;25.53;50.06;100006.72;5011889;28;20209;-66
2022/05/12 06:18:10;;;;;;;2.20;2.10;;;;;;;25.44;47.13;100005.66;5010775;28;20213;-64
2022/05/12 06:20:38;;;;;;;2.23;2.13;;;;;;;25.46;46.68;100000.31;5017352;28;20205;-66
2022/05/12 06:23:05;;;;;;;3.90;1.83;;;;;;;25.58;45.66;100009.81;5014887;28;20218;-64
2022/05/12 06:25:32;;;;;;;2.07;1.97;;;;;;;25.70;45.91;100008.78;5012767;28;20198;-67
2022/05/12 06:28:01;;;;;;;2.57;2.47;;;;;;;25.84;44.57;100010.28;5009406;28;20213;-65
2022/05/12 06:30:29;;;;;;;2.60;1.97;;;;;;;26.03;43.44;100003.34;5011876;28;20205;-64
2022/05/12 06:32:56;;;;;;;4.37;2.03;;;;;;;26.24;45.47;100003.34;5014907;28;20205;-64
2022/05/12 06:35:25;;;;;;;2.20;2.10;;;;;;;26.33;43.52;99997.31;5013854;28;20743;-63
2022/05/12 06:37:52;;;;;;;2.50;2.40;;;;;;;26.49;43.54;99996.81;5013826;28;20296;-64
2022/05/12 06:40:20;;;;;;;3.97;2.80;;;;;;;26.56;45.51;100008.44;5017432;28;20213;-64
2022/05/12 06:42:48;;;;;;;3.57;2.50;;;;;;;26.74;44.06;100013.94;5020476;28;20221;-65
2022/05/12 06:45:18;;;;;;;2.17;2.07;;;;;;;26.83;43.68;100007.88;5012997;28;20340;-65
2022/05/12 06:47:48;;;;;;;2.33;2.23;;;;;;;26.83;43.09;100003.47;5021810;28;20258;-66
2022/05/12 06:50:15;;;;;;;2.17;2.07;;;;;;;26.83;41.79;100011.34;5010306;28;20202;-65
2022/05/12 06:52:43;;;;;;;2.50;2.30;;;;;;;26.94;42.23;100007.78;5008882;28;20198;-64
2022/05/12 06:55:10;;;;;;;2.50;2.33;;;;;;;27.12;42.98;99995.63;5004012;28;20719;-65
2022/05/12 06:57:37;;;;;;;2.30;2.20;;;;;;;27.24;42.27;99998.97;5008695;28;20208;-64
2022/05/12 07:00:08;;;;;;;2.50;2.40;;;;;;;27.28;42.63;100000.34;5009761;28;20209;-65
2022/05/12 07:02:38;;;;;;;2.93;2.23;;;;;;;27.31;42.62;99992.16;5016049;28;20284;-65
2022/05/12 07:05:06;;;;;;;2.17;2.07;;;;;;;27.17;41.04;99966.25;5011264;28;20262;-65
2022/05/12 07:07:34;;;;;;;3.03;2.73;;;;;;;27.48;40.94;100007.31;5014121;28;20206;-65
2022/05/12 07:10:01;;;;;;;2.47;2.27;;;;;;;27.70;42.27;99995.63;5021646;28;20207;-65
2022/05/12 07:12:28;;;;;;;2.17;2.07;;;;;;;27.86;40.35;99999.34;5015528;28;20213;-65
2022/05/12 07:14:56;;;;;;;2.57;2.40;;;;;;;27.82;40.31;100003.25;5019761;28;20652;-65
2022/05/12 07:17:23;;;;;;;2.67;2.57;;;;;;;27.84;42.35;99988.13;5013511;28;20205;-65
2022/05/12 07:19:52;;;;;;;7.23;2.90;;;;;;;27.99;44.46;99997.25;5017880;28;20574;-65
2022/05/12 07:27:48;;;;;;;2.13;1.93;;;;;;;28.11;40.53;99990.88;5008374;28;20581;-65
2022/05/12 07:30:14;;;;;;;1.90;1.80;;;;;;;28.26;42.11;99987.78;5013821;28;20213;-65
2022/05/12 07:32:42;;;;;;;2.50;2.30;;;;;;;28.26;40.17;99988.59;5010429;28;20213;-65
2022/05/12 07:35:12;;;;;;;2.83;2.47;;;;;;;28.28;42.24;99985.81;5015790;28;20206;-65
2022/05/12 07:37:38;;;;;;;2.23;2.13;;;;;;;28.36;40.01;99978.84;5022540;28;20213;-65
2022/05/12 07:40:07;;;;;;;4.80;3.57;;;;;;;28.41;40.77;99983.69;5027924;28;20256;-65
2022/05/12 07:42:34;;;;;;;2.27;2.17;;;;;;;28.48;40.72;99979.47;5011247;28;20229;-65
2022/05/12 07:45:01;;;;;;;3.03;2.93;;;;;;;28.65;40.86;99984.00;5014809;28;20209;-65
2022/05/12 07:47:28;;;;;;;2.17;2.07;;;;;;;28.70;41.11;99980.91;5017256;28;20206;-66
2022/05/12 07:49:54;;;;;;;2.60;2.40;;;;;;;28.96;42.29;99974.78;5010131;28;20206;-65
2022/05/12 07:52:23;;;;;;;2.90;2.80;;;;;;;28.84;40.68;99981.28;5016883;28;20201;-64
2022/05/12 07:54:50;;;;;;;2.17;2.07;;;;;;;29.05;41.03;99981.81;5011977;28;20284;-65
2022/05/12 07:57:17;;;;;;;2.47;2.37;;;;;;;29.09;40.74;99982.34;5024489;28;20673;-65
2022/05/12 07:59:44;;;;;;;2.50;2.30;;;;;;;29.19;39.73;99983.09;5013379;28;20210;-65
2022/05/12 08:02:15;;;;;;;2.83;2.63;;;;;;;29.36;41.01;99973.56;5016937;28;20248;-65
2022/05/12 08:04:42;;;;;;;2.50;2.40;;;;;;;29.39;39.01;99967.97;5022725;28;20228;-65
2022/05/12 08:07:09;;;;;;;2.53;2.37;;;;;;;29.47;41.38;99971.50;5019267;28;20291;-65
2022/05/12 08:09:37;;;;;;;4.93;2.50;;;;;;;29.19;39.87;99968.09;5014773;28;20590;-65
2022/05/12 08:12:05;;;;;;;2.00;1.90;;;;;;;29.30;37.95;99968.88;5021212;28;20194;-65
2022/05/12 08:14:32;;;;;;;2.47;2.37;;;;;;;29.48;37.22;99972.31;5022319;28;20215;-65
2022/05/12 08:16:58;;;;;;;2.50;2.20;;;;;;;29.41;37.99;99960.69;5020006;28;20210;-64
2022/05/12 08:19:25;;;;;;;2.67;2.57;;;;;;;29.46;39.26;99969.84;5012893;28;20208;-65
2022/05/12 08:21:52;;;;;;;5.40;2.73;;;;;;;29.63;38.44;99971.63;5013638;28;20303;-66
2022/05/12 08:24:19;;;;;;;4.13;2.47;;;;;;;29.68;38.74;99965.88;5020566;28;20593;-65
2022/05/12 08:26:47;;;;;;;2.13;1.93;;;;;;;29.76;37.80;99965.91;5010164;28;20229;-64
2022/05/12 08:29:14;;;;;;;4.60;2.37;;;;;;;29.98;37.91;99965.47;5006007;28;20202;-63
2022/05/12 08:31:41;;;;;;;4.33;2.30;;;;;;;29.98;37.28;99962.81;5017676;28;20205;-63
2022/05/12 08:34:08;;;;;;;2.50;2.40;;;;;;;30.15;37.69;99961.06;5013712;28;20212;-63
2022/05/12 08:36:36;;;;;;;2.50;2.37;;;;;;;30.30;35.54;99959.50;5022406;28;20719;-63
2022/05/12 08:39:03;;;;;;;2.30;2.20;;;;;;;30.37;36.41;99965.00;5015075;28;20255;-63
2022/05/12 08:41:51;;;;;;;2.23;2.13;;;;;;;30.23;35.22;99957.66;5020058;28;20692;-63
2022/05/12 08:44:20;;;;;;;2.17;2.07;;;;;;;30.27;36.54;99951.06;5011129;28;20206;-63
2022/05/12 08:46:49;;;;;;;2.40;2.30;;;;;;;30.45;36.37;99949.16;5018845;28;20271;-63
2022/05/12 08:49:22;;;;;;;2.63;2.50;;;;;;;30.57;36.94;99954.00;5009636;28;20233;-63
2022/05/12 08:51:53;;;;;;;2.70;2.47;;;;;;;30.51;34.19;99941.41;5011893;28;20202;-63
2022/05/12 08:54:25;;;;;;;2.70;2.17;;;;;;;30.70;34.48;99953.53;5013849;28;20212;-63
2022/05/12 08:57:00;;;;;;;2.10;2.00;;;;;;;30.73;35.03;99950.56;5011596;28;20214;-63
2022/05/12 08:59:27;;;;;;;3.80;2.07;;;;;;;30.81;34.62;99955.06;5022552;28;20201;-62
2022/05/12 09:02:02;;;;;;;2.00;1.90;;;;;;;31.00;35.61;99957.44;5011440;28;20226;-64
2022/05/12 09:04:55;;;;;;;2.42;2.25;;;;;;;30.89;35.17;99955.91;5015466;28;20202;-63
2022/05/12 09:07:27;;;;;;;2.40;2.30;;;;;;;30.88;35.38;99954.28;5016849;28;20214;-63
2022/05/12 09:10:03;;;;;;;2.67;2.57;;;;;;;30.64;36.66;99952.38;5021426;28;20670;-64
2022/05/12 09:12:41;;;;;;;2.80;2.00;;;;;;;30.43;34.85;99953.81;5008661;28;21426;-64
2022/05/12 09:15:13;;;;;;;3.60;2.30;;;;;;;30.26;36.92;99936.16;5012545;28;20232;-63
2022/05/12 09:17:43;;;;;;;2.40;2.17;;;;;;;30.40;37.49;99943.53;5018701;28;20237;-63
2022/05/12 09:20:11;;;;;;;2.67;2.03;;;;;;;30.52;35.05;99937.78;5012842;28;20582;-63
2022/05/12 09:22:41;;;;;;;21.20;8.50;;;;;;;30.46;36.22;99953.47;5018634;28;20225;-63
2022/05/12 09:25:10;;;;;;;2.80;2.70;;;;;;;30.74;36.85;99944.31;5015546;28;20206;-64
2022/05/12 09:27:44;;;;;;;11.73;3.07;;;;;;;30.89;34.60;99942.66;5013256;28;20202;-64
2022/05/12 09:30:12;;;;;;;3.73;3.30;;;;;;;30.88;35.75;99956.91;5016695;28;20192;-64
2022/05/12 09:32:40;;;;;;;2.67;2.53;;;;;;;31.01;36.87;99949.38;5023910;28;20216;-64
2022/05/12 09:35:20;;;;;;;1.73;1.63;;;;;;;31.12;34.65;99954.31;5019736;28;20206;-64
2022/05/12 09:37:47;;;;;;;1.70;1.60;;;;;;;31.11;31.84;99950.03;5013768;28;20260;-64
2022/05/12 09:40:18;;;;;;;1.73;1.63;;;;;;;31.05;32.40;99948.03;5012028;28;20582;-64
2022/05/12 09:42:49;;;;;;;1.80;1.70;;;;;;;30.96;30.57;99951.66;5010569;28;20237;-64
2022/05/12 09:45:29;;;;;;;1.80;1.70;;;;;;;30.83;31.54;99939.84;5017940;28;20205;-66
2022/05/12 09:48:10;;;;;;;1.73;1.50;;;;;;;30.85;34.04;99938.72;5017283;28;20220;-65
2022/05/12 09:50:37;;;;;;;2.00;1.90;;;;;;;30.96;32.88;99932.28;5022800;28;20673;-65
2022/05/12 09:53:07;;;;;;;3.90;1.88;;;;;;;31.06;32.99;99935.59;5009546;28;20202;-64
2022/05/12 09:55:38;;;;;;;1.80;1.70;;;;;;;31.05;32.00;99926.84;5012405;28;20727;-64
2022/05/12 09:58:23;;;;;;;1.77;1.67;;;;;;;31.05;31.40;99934.78;5018812;28;20202;-64
2022/05/12 10:01:07;;;;;;;1.90;1.80;;;;;;;31.19;30.86;99935.94;5016974;28;20206;-64
2022/05/12 10:09:10;;;;;;;1.80;1.70;;;;;;;30.82;32.07;99917.84;5013938;28;20209;-65
2022/05/12 10:11:44;;;;;;;2.23;2.13;;;;;;;30.43;30.96;99924.69;5011794;28;20206;-65
2022/05/12 10:14:22;;;;;;;2.00;1.90;;;;;;;30.08;31.24;99918.56;5011905;28;20201;-65
2022/05/12 10:16:52;;;;;;;2.27;2.17;;;;;;;30.19;31.73;99915.66;5006702;28;20205;-64
2022/05/12 10:19:22;;;;;;;3.40;1.80;;;;;;;30.21;32.25;99908.38;5013931;28;20214;-63
2022/05/12 10:21:56;;;;;;;1.70;1.60;;;;;;;30.24;31.26;99901.13;5014084;28;20205;-64
2022/05/12 10:24:31;;;;;;;3.30;3.10;;;;;;;30.34;31.69;99907.13;5013962;28;20221;-64
2022/05/12 10:27:06;;;;;;;2.10;2.00;;;;;;;30.64;33.98;99903.91;5002028;28;20221;-64
2022/05/12 10:29:47;;;;;;;2.00;1.77;;;;;;;30.83;30.57;99914.19;5022478;28;20225;-64
2022/05/12 10:32:26;;;;;;;2.13;2.03;;;;;;;31.00;32.72;99909.78;5009789;28;20570;-64
2022/05/12 10:35:03;;;;;;;1.83;1.73;;;;;;;31.18;29.33;99898.03;5002450;28;20610;-64
2022/05/12 10:37:42;;;;;;;1.53;1.40;;;;;;;31.09;28.24;99899.03;5015183;28;20640;-64
2022/05/12 10:40:22;;;;;;;2.60;1.83;;;;;;;31.02;29.24;99890.09;5018775;28;20588;-66
2022/05/12 10:42:58;;;;;;;1.90;1.80;;;;;;;31.01;28.73;99891.09;5016635;28;20620;-66
2022/05/12 10:45:32;;;;;;;1.63;1.63;;;;;;;30.83;29.45;99865.72;5020385;28;20206;-66
2022/05/12 10:48:30;;;;;;;1.52;1.42;;;;;;;30.65;27.00;99889.69;5025629;28;20197;-67
2022/05/12 10:51:01;;;;;;;1.87;1.77;;;;;;;30.79;29.08;99890.88;5004815;28;20202;-67
2022/05/12 10:53:43;;;;;;;2.67;1.80;;;;;;;30.61;28.11;99883.88;5018618;28;20244;-66
2022/05/12 10:56:24;;;;;;;2.60;1.70;;;;;;;30.75;30.02;99866.53;5012366;28;20226;-66
2022/05/12 10:59:07;;;;;;;1.98;1.73;;;;;;;30.96;29.06;99882.81;5019910;28;20209;-67
2022/05/12 11:01:39;;;;;;;1.52;1.15;;;;;;;31.00;27.64;99878.84;5024950;28;20255;-67
2022/05/12 11:04:10;;;;;;;1.60;1.60;;;;;;;30.86;28.65;99871.50;5013776;28;20220;-67
2022/05/12 11:06:41;;;;;;;1.67;1.45;;;;;;;30.94;28.82;99871.53;5019310;28;20204;-66
2022/05/12 11:09:15;;;;;;;2.23;1.50;;;;;;;30.95;28.96;99870.56;5014010;28;20214;-67
2022/05/12 11:11:46;;;;;;;1.77;1.67;;;;;;;31.13;28.26;99862.44;5025314;28;20662;-66
2022/05/12 11:14:18;;;;;;;1.70;1.60;;;;;;;31.29;27.71;99861.59;5008874;28;20206;-67
2022/05/12 11:16:54;;;;;;;1.35;1.35;;;;;;;31.41;27.31;99860.25;5009838;28;20217;-67
2022/05/12 11:19:23;;;;;;;1.95;1.85;;;;;;;31.48;29.69;99864.72;5019848;28;20279;-67
2022/05/12 11:22:09;;;;;;;1.50;1.40;;;;;;;31.49;29.36;99854.94;5015873;28;20205;-67
2022/05/12 11:24:46;;;;;;;1.95;1.83;;;;;;;31.35;26.65;99852.97;5008601;28;20206;-66
2022/05/12 11:27:26;;;;;;;1.73;1.25;;;;;;;31.08;24.66;99854.97;5011240;28;20217;-66
2022/05/12 11:30:04;;;;;;;1.25;1.25;;;;;;;30.94;25.18;99847.69;5013573;28;20654;-66
2022/05/12 11:32:43;;;;;;;1.20;1.20;;;;;;;30.86;24.00;99838.94;5023309;28;20201;-67
2022/05/12 11:35:13;;;;;;;0.90;0.90;;;;;;;30.74;25.03;99841.06;5025677;28;20665;-67
2022/05/12 11:37:56;;;;;;;1.23;1.10;;;;;;;30.68;24.42;99842.56;5014651;28;20194;-67
2022/05/12 11:40:49;;;;;;;1.38;1.27;;;;;;;30.54;26.12;99829.13;5018271;28;20598;-67
2022/05/12 11:46:32;;;;;;;1.20;1.20;;;;;;;30.38;25.83;99829.88;5020392;28;20273;-67
2022/05/12 11:49:04;;;;;;;1.00;0.90;;;;;;;30.57;25.34;99828.78;5028213;28;20202;-67
2022/05/12 11:51:42;;;;;;;1.00;1.00;;;;;;;30.72;25.00;99821.88;5014842;28;20261;-67
2022/05/12 11:54:14;;;;;;;1.10;1.10;;;;;;;30.83;27.31;99818.88;5023620;28;20202;-66
2022/05/12 11:56:46;;;;;;;1.73;1.40;;;;;;;31.00;26.83;99817.94;5022630;28;20206;-66
2022/05/12 11:59:43;;;;;;;1.33;1.30;;;;;;;31.06;25.91;99814.59;5031056;28;20751;-67
2022/05/12 12:02:39;;;;;;;1.20;1.20;;;;;;;30.53;25.70;99801.00;5019377;28;20638;-67